createdAt,value
2023-01-02T00:00:42.983Z,12.31
2023-01-02T00:02:14.397Z,12.59
2023-01-02T00:03:45.875Z,13.80
2023-01-02T00:05:17.356Z,10.86
2023-01-02T00:06:48.805Z,9.65
2023-01-02T00:08:20.163Z,10.10
2023-01-02T00:09:51.484Z,11.35
2023-01-02T00:11:22.862Z,10.70
2023-01-02T00:12:54.183Z,12.91
2023-01-02T00:14:25.640Z,12.33
2023-01-02T00:15:57.069Z,11.03
2023-01-02T00:17:28.521Z,12.13
2023-01-02T00:18:59.854Z,10.07
2023-01-02T00:20:31.195Z,10.95
2023-01-02T00:22:02.520Z,10.19
2023-01-02T00:23:33.981Z,12.64
2023-01-02T00:25:05.371Z,15.22
2023-01-02T00:26:36.801Z,13.14
2023-01-02T00:28:08.607Z,12.19
2023-01-02T00:29:40.052Z,13.40
2023-01-02T00:31:17.009Z,15.01
2023-01-02T00:32:48.774Z,12.73
2023-01-02T00:34:20.077Z,12.41
2023-01-02T00:35:51.438Z,11.86
2023-01-02T00:37:22.783Z,14.55
2023-01-02T00:38:54.212Z,13.45
2023-01-02T00:40:25.564Z,10.89
2023-01-02T00:41:56.894Z,10.07
2023-01-02T00:43:28.605Z,10.24
2023-01-02T00:44:59.982Z,12.44
2023-01-02T00:46:31.409Z,12.13
2023-01-02T00:48:02.732Z,9.09
2023-01-02T00:49:34.151Z,12.18
2023-01-02T00:51:05.504Z,12.42
2023-01-02T00:52:36.858Z,14.06
2023-01-02T00:54:13.530Z,12.53
2023-01-02T00:55:45.203Z,11.55
2023-01-02T00:57:16.561Z,11.95
2023-01-02T00:58:48.000Z,10.98
2023-01-02T01:00:23.884Z,10.51
2023-01-02T01:01:55.820Z,12.07
2023-01-02T01:03:27.386Z,12.20
2023-01-02T01:04:58.804Z,12.17
2023-01-02T01:06:30.600Z,11.44
2023-01-02T01:08:02.141Z,17.30
2023-01-02T01:09:33.553Z,14.21
2023-01-02T01:11:05.017Z,11.88
2023-01-02T01:12:36.400Z,14.50
2023-01-02T01:14:07.848Z,11.57
2023-01-02T01:15:39.556Z,12.91
2023-01-02T01:17:11.041Z,14.41
2023-01-02T01:18:42.442Z,13.10
2023-01-02T01:20:13.804Z,12.36
2023-01-02T01:21:45.269Z,13.68
2023-01-02T01:23:16.769Z,14.09
2023-01-02T01:24:48.432Z,12.07
2023-01-02T01:26:20.065Z,11.98
2023-01-02T01:27:51.404Z,13.81
2023-01-02T01:29:23.171Z,12.07
2023-01-02T01:30:54.809Z,13.48
2023-01-02T01:32:27.302Z,12.79
2023-01-02T01:33:58.967Z,13.66
2023-01-02T01:35:30.375Z,14.22
2023-01-02T01:37:02.120Z,15.54
2023-01-02T01:38:33.440Z,16.39
2023-01-02T01:40:04.811Z,13.04
2023-01-02T01:41:36.122Z,16.64
2023-01-02T01:43:07.439Z,13.46
2023-01-02T01:44:38.784Z,14.09
2023-01-02T01:46:10.259Z,11.37
2023-01-02T01:47:41.733Z,13.26
2023-01-02T01:49:13.261Z,14.03
2023-01-02T01:50:44.718Z,15.00
2023-01-02T01:52:16.158Z,13.60
2023-01-02T01:53:47.761Z,13.81
2023-01-02T01:55:19.336Z,16.14
2023-01-02T01:56:50.676Z,13.17
2023-01-02T01:58:22.275Z,13.76
2023-01-02T01:59:53.939Z,12.78
2023-01-02T02:01:25.497Z,12.64
2023-01-02T02:02:57.273Z,13.05
2023-01-02T02:04:29.121Z,12.98
2023-01-02T02:06:00.745Z,9.83
2023-01-02T02:07:32.091Z,13.28
2023-01-02T02:09:03.407Z,12.52
2023-01-02T02:10:34.779Z,12.95
2023-01-02T02:12:06.123Z,14.07
2023-01-02T02:13:37.591Z,12.83
2023-01-02T02:15:09.225Z,13.61
2023-01-02T02:16:41.027Z,10.79
2023-01-02T02:18:12.440Z,12.42
2023-01-02T02:19:44.134Z,12.26
2023-01-02T02:21:15.634Z,13.36
2023-01-02T02:22:47.365Z,13.57
2023-01-02T02:24:18.913Z,13.63
2023-01-02T02:25:50.588Z,14.40
2023-01-02T02:27:21.955Z,12.70
2023-01-02T02:28:53.375Z,12.45
2023-01-02T02:30:29.786Z,11.77
2023-01-02T02:32:01.512Z,12.95
2023-01-02T02:33:33.155Z,12.59
2023-01-02T02:35:04.662Z,13.39
2023-01-02T02:36:36.111Z,14.17
2023-01-02T02:38:07.801Z,10.95
2023-01-02T02:39:39.185Z,10.45
2023-01-02T02:41:10.762Z,11.09
2023-01-02T02:42:42.052Z,11.86
2023-01-02T02:44:13.529Z,11.43
2023-01-02T02:45:44.856Z,12.79
2023-01-02T02:47:16.504Z,12.98
2023-01-02T02:48:47.751Z,12.71
2023-01-02T02:50:19.193Z,13.69
2023-01-02T02:51:50.636Z,13.03
2023-01-02T02:53:26.988Z,11.66
2023-01-02T02:54:58.296Z,10.81
2023-01-02T02:56:29.639Z,14.13
2023-01-02T02:58:00.950Z,13.15
2023-01-02T02:59:32.496Z,15.24
2023-01-02T03:01:04.047Z,11.05
2023-01-02T03:02:35.606Z,12.49
2023-01-02T03:04:07.139Z,12.61
2023-01-02T03:05:38.605Z,13.95
2023-01-02T03:07:09.999Z,11.90
2023-01-02T03:08:41.350Z,11.17
2023-01-02T03:10:12.735Z,14.78
2023-01-02T03:11:44.284Z,12.50
2023-01-02T03:13:15.830Z,12.73
2023-01-02T03:14:47.279Z,13.46
2023-01-02T03:16:18.991Z,13.95
2023-01-02T03:17:50.360Z,12.61
2023-01-02T03:19:21.686Z,11.32
2023-01-02T03:20:53.038Z,12.95
2023-01-02T03:22:24.472Z,13.24
2023-01-02T03:23:55.950Z,12.76
2023-01-02T03:25:27.509Z,11.38
2023-01-02T03:26:58.935Z,14.75
2023-01-02T03:28:31.485Z,11.59
2023-01-02T03:30:02.727Z,10.10
2023-01-02T03:31:34.192Z,14.53
2023-01-02T03:33:05.715Z,13.18
2023-01-02T03:34:37.338Z,13.06
2023-01-02T03:36:08.836Z,11.83
2023-01-02T03:37:40.280Z,12.56
2023-01-02T03:39:12.301Z,12.73
2023-01-02T03:40:43.799Z,11.79
2023-01-02T03:42:15.396Z,10.15
2023-01-02T03:43:50.141Z,13.28
2023-01-02T03:45:26.392Z,13.55
2023-01-02T03:46:57.792Z,16.76
2023-01-02T03:48:29.522Z,15.33
2023-01-02T03:50:01.029Z,12.43
2023-01-02T03:51:33.072Z,12.35
2023-01-02T03:53:04.680Z,12.38
2023-01-02T03:54:36.248Z,11.92
2023-01-02T03:56:07.861Z,13.72
2023-01-02T03:57:39.189Z,12.06
2023-01-02T03:59:10.757Z,12.77
2023-01-02T04:00:42.361Z,14.65
2023-01-02T04:02:13.907Z,15.32
2023-01-02T04:03:45.312Z,16.50
2023-01-02T04:05:16.754Z,11.64
2023-01-02T04:06:48.161Z,13.02
2023-01-02T04:08:19.743Z,11.95
2023-01-02T04:09:51.147Z,14.58
2023-01-02T04:11:27.607Z,14.88
2023-01-02T04:12:58.923Z,13.17
2023-01-02T04:14:30.567Z,16.29
2023-01-02T04:16:01.932Z,13.11
2023-01-02T04:17:33.672Z,17.56
2023-01-02T04:19:11.125Z,17.42
2023-01-02T04:20:42.852Z,14.97
2023-01-02T04:22:14.193Z,13.51
2023-01-02T04:23:45.716Z,16.47
2023-01-02T04:25:17.136Z,13.22
2023-01-02T04:26:48.433Z,15.55
2023-01-02T04:28:19.771Z,12.69
2023-01-02T04:29:51.207Z,12.82
2023-01-02T04:31:22.704Z,13.48
2023-01-02T04:32:54.380Z,12.29
2023-01-02T04:34:25.683Z,13.21
2023-01-02T04:35:56.952Z,14.60
2023-01-02T04:37:28.262Z,14.68
2023-01-02T04:39:00.148Z,14.85
2023-01-02T04:40:31.440Z,11.94
2023-01-02T04:42:02.731Z,12.25
2023-01-02T04:43:34.004Z,13.14
2023-01-02T04:45:05.354Z,13.89
2023-01-02T04:46:36.739Z,13.07
2023-01-02T04:48:08.249Z,12.88
2023-01-02T04:49:39.614Z,14.63
2023-01-02T04:51:11.037Z,12.73
2023-01-02T04:52:42.397Z,13.12
2023-01-02T04:54:14.924Z,13.16
2023-01-02T04:55:46.754Z,11.00
2023-01-02T04:57:18.278Z,11.04
2023-01-02T04:58:49.641Z,12.29
2023-01-02T05:00:20.932Z,12.43
2023-01-02T05:01:52.739Z,13.70
2023-01-02T05:03:24.096Z,13.68
2023-01-02T05:04:55.524Z,15.87
2023-01-02T05:06:26.822Z,14.44
2023-01-02T05:07:58.130Z,13.12
2023-01-02T05:09:29.479Z,16.22
2023-01-02T05:11:00.899Z,12.89
2023-01-02T05:12:32.837Z,12.08
2023-01-02T05:14:07.554Z,11.76
2023-01-02T05:15:39.355Z,12.97
2023-01-02T05:17:10.761Z,10.99
2023-01-02T05:18:42.234Z,12.70
2023-01-02T05:20:13.811Z,11.72
2023-01-02T05:21:45.201Z,13.25
2023-01-02T05:23:16.515Z,11.57
2023-01-02T05:24:47.930Z,14.30
2023-01-02T05:26:19.291Z,13.63
2023-01-02T05:27:50.873Z,9.52
2023-01-02T05:29:22.460Z,8.02
2023-01-02T05:30:53.876Z,11.67
2023-01-02T05:32:25.132Z,9.99
2023-01-02T05:33:56.569Z,10.55
2023-01-02T05:35:32.553Z,12.04
2023-01-02T05:37:04.959Z,10.84
2023-01-02T05:38:36.733Z,9.01
2023-01-02T05:40:08.069Z,10.64
2023-01-02T05:41:39.610Z,10.92
2023-01-02T05:43:11.066Z,10.26
2023-01-02T05:44:42.382Z,9.86
2023-01-02T05:46:13.778Z,10.76
2023-01-02T05:47:45.197Z,10.25
2023-01-02T05:49:16.514Z,10.11
2023-01-02T05:50:47.839Z,9.87
2023-01-02T05:52:19.155Z,11.67
2023-01-02T05:53:50.500Z,11.88
2023-01-02T05:55:21.864Z,12.46
2023-01-02T05:56:53.183Z,10.64
2023-01-02T05:58:25.546Z,12.26
2023-01-02T05:59:56.920Z,12.06
2023-01-02T06:01:28.338Z,12.41
2023-01-02T06:03:00.131Z,13.23
2023-01-02T06:04:31.552Z,13.78
2023-01-02T06:06:02.869Z,13.17
2023-01-02T06:07:34.615Z,11.93
2023-01-02T06:09:06.132Z,11.09
2023-01-02T06:10:37.580Z,11.98
2023-01-02T06:12:09.019Z,10.67
2023-01-02T06:13:40.358Z,12.06
2023-01-02T06:15:11.707Z,11.23
2023-01-02T06:16:43.466Z,9.69
2023-01-02T06:18:14.864Z,11.13
2023-01-02T06:19:51.903Z,12.91
2023-01-02T06:21:25.285Z,10.09
2023-01-02T06:22:56.804Z,10.28
2023-01-02T06:24:28.188Z,11.61
2023-01-02T06:25:59.635Z,11.88
2023-01-02T06:27:30.928Z,11.17
2023-01-02T06:29:02.345Z,12.16
2023-01-02T06:30:34.026Z,11.03
2023-01-02T06:32:05.575Z,10.75
2023-01-02T06:33:37.040Z,9.63
2023-01-02T06:35:08.471Z,9.86
2023-01-02T06:36:40.098Z,11.13
2023-01-02T06:38:11.529Z,10.88
2023-01-02T06:40:24.320Z,11.92
2023-01-02T06:41:55.651Z,9.73
2023-01-02T06:43:26.901Z,8.82
2023-01-02T06:45:03.495Z,11.57
2023-01-02T06:46:34.805Z,10.50
2023-01-02T06:48:06.107Z,9.77
2023-01-02T06:49:37.479Z,9.55
2023-01-02T06:51:08.996Z,8.75
2023-01-02T06:52:40.759Z,11.37
2023-01-02T06:54:12.209Z,11.84
2023-01-02T06:55:43.550Z,7.05
2023-01-02T06:57:14.862Z,9.28
2023-01-02T06:58:46.755Z,7.57
2023-01-02T07:00:18.102Z,6.00
2023-01-02T07:01:49.637Z,6.17
2023-01-02T07:03:21.280Z,6.14
2023-01-02T07:04:52.591Z,7.96
2023-01-02T07:06:23.970Z,8.67
2023-01-02T07:07:55.479Z,9.47
2023-01-02T07:40:38.458Z,11.80
2023-01-02T07:42:09.671Z,8.12
2023-01-02T07:43:41.864Z,11.11
2023-01-02T07:45:13.110Z,9.96
2023-01-02T07:46:44.428Z,11.30
2023-01-02T07:48:15.972Z,8.82
2023-01-02T07:49:47.290Z,10.90
2023-01-02T07:51:24.545Z,10.40
2023-01-02T07:52:58.288Z,9.00
2023-01-02T07:54:29.602Z,10.98
2023-01-02T07:56:01.012Z,10.20
2023-01-02T07:57:32.360Z,9.97
2023-01-02T07:59:03.751Z,10.12
2023-01-02T08:00:35.133Z,8.38
2023-01-02T08:02:06.627Z,9.12
2023-01-02T08:03:38.113Z,8.92
2023-01-02T08:05:09.465Z,10.30
2023-01-02T08:06:41.005Z,10.21
2023-01-02T08:08:12.412Z,9.75
2023-01-02T08:09:43.881Z,9.56
2023-01-02T08:11:15.285Z,9.11
2023-01-02T08:12:46.736Z,10.38
2023-01-02T08:14:23.211Z,10.59
2023-01-02T08:15:55.346Z,11.69
2023-01-02T08:17:26.666Z,9.84
2023-01-02T08:18:58.061Z,11.10
2023-01-02T08:20:29.352Z,10.76
2023-01-02T08:22:00.828Z,11.74
2023-01-02T08:23:32.272Z,9.97
2023-01-02T08:25:03.620Z,9.40
2023-01-02T08:26:34.966Z,10.19
2023-01-02T08:28:06.279Z,11.64
2023-01-02T08:29:37.629Z,13.05
2023-01-02T08:31:09.085Z,11.16
2023-01-02T08:32:40.498Z,10.03
2023-01-02T08:34:11.825Z,11.62
2023-01-02T08:35:43.156Z,13.18
2023-01-02T08:37:14.478Z,11.42
2023-01-02T08:38:45.743Z,10.74
2023-01-02T08:40:17.074Z,10.58
2023-01-02T08:41:48.634Z,11.65
2023-01-02T08:43:19.958Z,13.94
2023-01-02T08:44:51.262Z,12.15
2023-01-02T08:46:22.819Z,12.19
2023-01-02T08:47:54.280Z,12.07
2023-01-02T08:49:25.590Z,12.43
2023-01-02T08:50:57.006Z,12.37
2023-01-02T08:52:28.368Z,12.08
2023-01-02T08:53:59.633Z,14.08
2023-01-02T08:55:31.182Z,12.67
2023-01-02T08:57:02.525Z,10.72
2023-01-02T08:58:34.089Z,10.37
2023-01-02T09:00:06.692Z,11.24
2023-01-02T09:01:38.185Z,8.21
2023-01-02T09:03:09.953Z,11.31
2023-01-02T09:04:41.533Z,9.73
2023-01-02T09:06:19.726Z,10.49
2023-01-02T09:07:53.135Z,9.68
2023-01-02T09:09:24.641Z,10.22
2023-01-02T09:10:56.163Z,9.17
2023-01-02T09:12:27.510Z,11.12
2023-01-02T09:13:58.821Z,10.93
2023-01-02T09:15:30.223Z,8.29
2023-01-02T09:17:01.584Z,7.06
2023-01-02T09:18:32.924Z,4.62
2023-01-02T09:20:04.486Z,10.57
2023-01-02T09:21:35.957Z,7.10
2023-01-02T09:23:07.372Z,4.24
2023-01-02T09:24:38.690Z,6.28
2023-01-02T09:26:10.000Z,6.26
2023-01-02T09:27:41.497Z,6.36
2023-01-02T09:29:13.038Z,8.28
2023-01-02T09:30:44.372Z,7.08
2023-01-02T09:32:15.776Z,4.60
2023-01-02T09:33:47.204Z,10.08
2023-01-02T09:35:18.533Z,8.07
2023-01-02T09:36:49.847Z,7.92
2023-01-02T09:38:21.294Z,8.28
2023-01-02T09:39:52.620Z,6.49
2023-01-02T09:41:23.975Z,3.80
2023-01-02T09:42:55.498Z,2.87
2023-01-02T09:44:27.207Z,3.78
2023-01-02T09:45:58.587Z,2.85
2023-01-02T09:47:29.872Z,2.88
2023-01-02T09:49:01.230Z,2.71
2023-01-02T09:50:32.931Z,2.70
2023-01-02T09:52:04.280Z,3.17
2023-01-02T09:53:35.631Z,1.86
2023-01-02T09:55:06.910Z,2.55
2023-01-02T09:56:38.198Z,2.11
2023-01-02T09:58:10.911Z,2.00
2023-01-02T09:59:42.479Z,3.19
2023-01-02T10:01:13.892Z,1.68
2023-01-02T10:02:45.262Z,2.01
2023-01-02T10:04:16.716Z,2.40
2023-01-02T10:05:48.286Z,3.07
2023-01-02T10:07:19.577Z,3.07
2023-01-02T10:08:50.793Z,1.77
2023-01-02T10:10:22.148Z,0.88
2023-01-02T10:11:53.450Z,1.03
2023-01-02T10:13:44.125Z,0.83
2023-01-02T10:15:40.131Z,1.22
2023-01-02T10:17:11.497Z,2.37
2023-01-02T10:18:42.926Z,1.51
2023-01-02T10:20:16.620Z,2.13
2023-01-02T10:21:50.407Z,1.66
2023-01-02T10:23:21.740Z,2.55
2023-01-02T10:24:53.066Z,3.50
2023-01-02T10:26:24.669Z,2.90
2023-01-02T10:27:56.004Z,3.58
2023-01-02T10:29:27.320Z,3.18
2023-01-02T10:31:03.960Z,3.40
2023-01-02T10:32:38.287Z,2.70
2023-01-02T10:34:09.770Z,2.00
2023-01-02T10:35:41.030Z,1.95
2023-01-02T10:37:12.416Z,3.47
2023-01-02T10:38:43.715Z,3.98
2023-01-02T10:40:15.050Z,2.77
2023-01-02T10:41:46.338Z,3.38
2023-01-02T10:43:18.869Z,2.59
2023-01-02T10:44:50.163Z,2.64
2023-01-02T10:46:21.768Z,2.51
2023-01-02T10:47:53.094Z,3.21
2023-01-02T10:49:24.435Z,2.68
2023-01-02T10:50:55.726Z,2.20
2023-01-02T10:52:27.048Z,2.26
2023-01-02T10:53:58.581Z,2.45
2023-01-02T10:55:29.855Z,2.71
2023-01-02T10:57:01.401Z,3.34
2023-01-02T10:58:32.697Z,2.28
2023-01-02T11:00:03.925Z,2.93
2023-01-02T11:01:35.784Z,3.16
2023-01-02T11:03:07.327Z,4.25
2023-01-02T11:04:38.664Z,5.23
2023-01-02T11:06:26.086Z,6.36
2023-01-02T11:07:58.138Z,6.27
2023-01-02T11:09:29.572Z,5.09
2023-01-02T11:11:01.579Z,6.95
2023-01-02T11:12:32.900Z,5.87
2023-01-02T11:14:04.209Z,7.12
2023-01-02T11:15:35.549Z,7.60
2023-01-02T11:17:07.064Z,7.11
2023-01-02T11:18:38.515Z,7.78
2023-01-02T11:20:09.913Z,8.34
2023-01-02T11:21:41.251Z,9.38
2023-01-02T11:23:12.558Z,8.09
2023-01-02T11:24:43.931Z,9.15
2023-01-02T11:26:15.245Z,7.82
2023-01-02T11:27:46.520Z,6.52
2023-01-02T11:29:17.862Z,6.86
2023-01-02T11:30:49.196Z,6.40
2023-01-02T11:32:20.533Z,8.66
2023-01-02T11:33:52.447Z,8.77
2023-01-02T11:35:23.869Z,8.21
2023-01-02T11:36:55.372Z,9.17
2023-01-02T11:38:26.748Z,8.45
2023-01-02T11:40:01.855Z,8.65
2023-01-02T11:41:33.284Z,9.65
2023-01-02T11:43:04.779Z,9.20
2023-01-02T11:44:36.018Z,8.47
2023-01-02T11:46:07.481Z,10.17
2023-01-02T11:47:38.971Z,10.02
2023-01-02T11:49:10.260Z,10.52
2023-01-02T11:50:41.770Z,9.00
2023-01-02T11:52:13.352Z,10.57
2023-01-02T11:53:44.651Z,10.74
2023-01-02T11:55:15.935Z,9.92
2023-01-02T11:56:47.509Z,8.36
2023-01-02T11:58:18.766Z,11.23
2023-01-02T11:59:50.069Z,13.14
2023-01-02T12:01:21.618Z,11.39
2023-01-02T12:02:53.412Z,9.79
2023-01-02T12:04:24.829Z,7.13
2023-01-02T12:05:56.149Z,8.46
2023-01-02T12:07:27.453Z,10.38
2023-01-02T12:08:59.181Z,10.53
2023-01-02T12:10:30.844Z,10.27
2023-01-02T12:12:02.209Z,10.55
2023-01-02T12:13:33.551Z,9.35
2023-01-02T12:15:05.115Z,7.44
2023-01-02T12:16:36.570Z,8.72
2023-01-02T12:18:08.055Z,10.12
2023-01-02T12:19:39.372Z,10.18
2023-01-02T12:21:10.686Z,8.13
2023-01-02T12:22:41.926Z,8.20
2023-01-02T12:24:13.235Z,9.73
2023-01-02T12:25:44.711Z,9.63
2023-01-02T12:27:16.384Z,9.16
2023-01-02T12:28:47.836Z,10.64
2023-01-02T12:30:19.273Z,9.67
2023-01-02T12:31:52.794Z,10.80
2023-01-02T12:33:24.247Z,10.27
2023-01-02T12:34:55.806Z,10.28
2023-01-02T12:36:27.492Z,10.28
2023-01-02T12:37:59.029Z,11.59
2023-01-02T12:39:30.528Z,10.38
2023-01-02T12:41:01.770Z,10.70
2023-01-02T12:42:33.075Z,8.40
2023-01-02T12:44:04.496Z,10.95
2023-01-02T12:45:35.879Z,10.38
2023-01-02T12:47:07.204Z,8.79
2023-01-02T12:48:38.604Z,10.03
2023-01-02T12:50:09.941Z,11.32
2023-01-02T12:51:41.323Z,9.34
2023-01-02T12:53:12.709Z,9.60
2023-01-02T12:54:44.174Z,10.09
2023-01-02T12:56:15.606Z,12.39
2023-01-02T12:57:48.048Z,9.63
2023-01-02T12:59:19.859Z,10.18
2023-01-02T13:00:51.510Z,9.43
2023-01-02T13:02:23.248Z,11.68
2023-01-02T13:03:55.027Z,11.15
2023-01-02T13:05:26.902Z,11.25
2023-01-02T13:06:58.322Z,8.90
2023-01-02T13:08:29.544Z,9.62
2023-01-02T13:10:01.008Z,11.86
2023-01-02T13:11:32.782Z,9.23
2023-01-02T13:13:04.179Z,8.61
2023-01-02T13:14:35.593Z,9.22
2023-01-02T13:16:15.005Z,9.40
2023-01-02T13:17:54.050Z,10.05
2023-01-02T13:19:25.707Z,9.87
2023-01-02T13:20:57.205Z,9.54
2023-01-02T13:22:28.712Z,11.39
2023-01-02T13:24:00.100Z,9.10
2023-01-02T13:25:31.491Z,9.44
2023-01-02T13:27:02.864Z,8.81
2023-01-02T13:28:39.748Z,8.71
2023-01-02T13:30:16.542Z,8.74
2023-01-02T13:31:51.341Z,8.30
2023-01-02T13:33:22.743Z,9.50
2023-01-02T13:34:54.258Z,10.13
2023-01-02T13:36:25.765Z,8.65
2023-01-02T13:37:57.073Z,8.13
2023-01-02T13:39:28.413Z,9.31
2023-01-02T13:41:00.205Z,9.32
2023-01-02T13:42:31.747Z,9.85
2023-01-02T13:44:03.062Z,9.82
2023-01-02T13:45:34.782Z,10.31
2023-01-02T13:47:06.146Z,9.11
2023-01-02T13:48:37.493Z,8.71
2023-01-02T13:50:08.791Z,9.02
2023-01-02T13:51:40.035Z,9.39
2023-01-02T13:53:11.594Z,9.77
2023-01-02T13:54:43.225Z,10.95
2023-01-02T13:56:14.655Z,10.70
2023-01-02T13:57:46.203Z,11.89
2023-01-02T13:59:42.083Z,11.94
2023-01-02T14:01:14.712Z,11.49
2023-01-02T14:02:46.308Z,11.04
2023-01-02T14:04:17.875Z,11.55
2023-01-02T14:05:49.165Z,10.03
2023-01-02T14:07:20.730Z,7.69
2023-01-02T14:08:52.132Z,11.15
2023-01-02T14:10:23.507Z,12.07
2023-01-02T14:11:55.558Z,10.98
2023-01-02T14:13:28.303Z,11.44
2023-01-02T14:14:59.636Z,11.11
2023-01-02T14:16:30.924Z,11.84
2023-01-02T14:18:02.326Z,10.30
2023-01-02T14:19:33.751Z,10.45
2023-01-02T14:21:05.147Z,10.75
2023-01-02T14:22:36.738Z,9.64
2023-01-02T14:24:16.816Z,10.09
2023-01-02T14:25:50.684Z,12.16
2023-01-02T14:27:22.210Z,9.54
2023-01-02T14:28:53.442Z,8.82
2023-01-02T14:30:24.970Z,9.77
2023-01-02T14:31:56.277Z,9.13
2023-01-02T14:33:27.788Z,10.18
2023-01-02T14:34:59.094Z,9.49
2023-01-02T14:36:30.439Z,10.06
2023-01-02T14:38:01.726Z,11.14
2023-01-02T14:39:33.315Z,10.71
2023-01-02T14:41:05.847Z,10.30
2023-01-02T14:42:37.319Z,10.13
2023-01-02T14:44:08.806Z,9.84
2023-01-02T14:45:40.231Z,9.32
2023-01-02T14:47:11.588Z,9.18
2023-01-02T14:48:43.085Z,9.90
2023-01-02T14:50:14.694Z,10.79
2023-01-02T14:51:46.064Z,9.90
2023-01-02T14:53:17.363Z,10.68
2023-01-02T14:54:48.989Z,9.67
2023-01-02T14:56:20.304Z,9.75
2023-01-02T14:57:51.689Z,10.94
2023-01-02T14:59:23.195Z,11.80
2023-01-02T15:00:59.106Z,11.36
2023-01-02T15:02:33.927Z,10.99
2023-01-02T15:04:05.341Z,11.38
2023-01-02T15:05:36.612Z,10.92
2023-01-02T15:07:10.009Z,12.15
2023-01-02T15:08:41.466Z,14.69
2023-01-02T15:10:12.747Z,12.01
2023-01-02T15:11:44.071Z,12.34
2023-01-02T15:13:20.476Z,12.67
2023-01-02T15:14:51.943Z,14.72
2023-01-02T15:16:23.413Z,13.72
2023-01-02T15:17:54.789Z,14.37
2023-01-02T15:19:26.313Z,14.39
2023-01-02T15:20:57.800Z,14.80
2023-01-02T15:22:29.285Z,15.83
2023-01-02T15:24:00.655Z,15.90
2023-01-02T15:25:31.924Z,16.73
2023-01-02T15:27:03.157Z,17.19
2023-01-02T15:28:34.412Z,15.64
2023-01-02T15:30:05.774Z,15.99
2023-01-02T15:31:37.083Z,14.53
2023-01-02T15:33:08.335Z,12.18
2023-01-02T15:34:44.694Z,15.68
2023-01-02T15:36:16.377Z,15.78
2023-01-02T15:38:30.919Z,14.35
2023-01-02T15:40:03.250Z,13.17
2023-01-02T15:41:35.655Z,14.82
2023-01-02T15:43:07.920Z,14.87
2023-01-02T15:44:40.327Z,16.32
2023-01-02T15:46:12.633Z,15.88
2023-01-02T15:47:45.227Z,14.35
2023-01-02T15:49:17.329Z,16.19
2023-01-02T15:50:49.385Z,16.64
2023-01-02T15:52:20.663Z,13.98
2023-01-02T15:53:52.282Z,14.58
2023-01-02T15:55:23.551Z,15.07
2023-01-02T15:56:54.890Z,14.99
2023-01-02T15:58:41.793Z,15.37
2023-01-02T16:00:13.110Z,13.65
2023-01-02T16:01:44.880Z,14.70
2023-01-02T16:03:16.329Z,13.64
2023-01-02T16:04:47.977Z,14.32
2023-01-02T16:06:19.429Z,14.35
2023-01-02T16:07:50.836Z,12.49
2023-01-02T16:09:22.152Z,12.72
2023-01-02T16:10:53.623Z,14.76
2023-01-02T16:12:25.135Z,15.00
2023-01-02T16:13:56.669Z,15.26
2023-01-02T16:15:27.983Z,14.88
2023-01-02T16:16:59.452Z,14.80
2023-01-02T16:18:30.833Z,15.26
2023-01-02T16:20:02.423Z,15.50
2023-01-02T16:21:35.047Z,15.95
2023-01-02T16:23:06.533Z,14.96
2023-01-02T16:24:38.119Z,14.23
2023-01-02T16:26:09.508Z,17.21
2023-01-02T16:27:40.851Z,16.50
2023-01-02T16:29:12.164Z,15.20
2023-01-02T16:30:43.509Z,16.41
2023-01-02T16:32:14.765Z,17.14
2023-01-02T16:33:46.220Z,16.21
2023-01-02T16:35:18.201Z,14.86
2023-01-02T16:36:49.617Z,15.63
2023-01-02T16:38:20.899Z,15.72
2023-01-02T16:39:52.250Z,16.42
2023-01-02T16:41:28.743Z,15.39
2023-01-02T16:43:00.062Z,17.37
2023-01-02T16:44:31.450Z,16.54
2023-01-02T16:46:02.726Z,16.56
2023-01-02T16:47:34.136Z,17.93
2023-01-02T16:49:05.729Z,16.92
2023-01-02T16:50:37.271Z,17.14
2023-01-02T16:52:08.638Z,14.11
2023-01-02T16:53:40.231Z,13.76
2023-01-02T16:55:11.640Z,13.66
2023-01-02T16:56:43.049Z,14.65
2023-01-02T16:58:14.641Z,14.90
2023-01-02T16:59:46.641Z,13.18
2023-01-02T17:01:18.153Z,12.96
2023-01-02T17:02:49.744Z,11.97
2023-01-02T17:04:21.092Z,10.23
2023-01-02T17:06:01.382Z,13.14
2023-01-02T17:07:34.225Z,10.83
2023-01-02T17:09:05.751Z,12.16
2023-01-02T17:10:37.200Z,12.55
2023-01-02T17:12:08.427Z,13.44
2023-01-02T17:13:39.665Z,11.02
2023-01-02T17:15:10.942Z,12.06
2023-01-02T17:16:42.312Z,13.19
2023-01-02T17:18:13.672Z,11.87
2023-01-02T17:19:45.055Z,11.02
2023-01-02T17:21:16.331Z,13.84
2023-01-02T17:22:47.626Z,12.78
2023-01-02T17:24:19.007Z,10.45
2023-01-02T17:25:50.393Z,8.59
2023-01-02T17:27:21.657Z,8.44
2023-01-02T17:28:52.936Z,10.44
2023-01-02T17:30:34.549Z,6.42
2023-01-02T17:32:06.306Z,8.02
2023-01-02T17:33:37.901Z,4.81
2023-01-02T17:35:09.318Z,6.67
2023-01-02T17:36:40.802Z,4.83
2023-01-02T17:38:12.333Z,4.49
2023-01-02T17:39:43.760Z,4.40
2023-01-02T17:41:15.025Z,5.82
2023-01-02T17:42:46.324Z,5.16
2023-01-02T17:44:17.593Z,3.97
2023-01-02T17:45:49.030Z,3.52
2023-01-02T17:47:59.373Z,4.51
2023-01-02T17:49:32.339Z,4.87
2023-01-02T17:51:03.497Z,4.63
2023-01-02T17:52:34.719Z,4.16
2023-01-02T17:54:05.993Z,4.93
2023-01-02T17:55:37.265Z,3.53
2023-01-02T17:57:08.711Z,3.22
2023-01-02T17:58:40.110Z,3.09
2023-01-02T18:00:11.332Z,2.63
2023-01-02T18:01:42.739Z,3.08
2023-01-02T18:03:14.379Z,2.25
2023-01-02T18:04:52.662Z,1.58
2023-01-02T18:06:26.242Z,2.79
2023-01-02T18:07:57.790Z,2.25
2023-01-02T18:09:29.169Z,1.79
2023-01-02T18:11:00.474Z,1.63
2023-01-02T18:12:31.824Z,2.86
2023-01-02T18:14:03.098Z,3.36
2023-01-02T18:15:34.473Z,2.47
2023-01-02T18:17:05.792Z,3.20
2023-01-02T18:18:37.066Z,3.82
2023-01-02T18:20:09.231Z,2.77
2023-01-02T18:21:40.712Z,2.59
2023-01-02T18:23:11.948Z,3.41
2023-01-02T18:24:43.193Z,3.20
2023-01-02T18:26:14.443Z,2.12
2023-01-02T18:27:45.839Z,2.85
2023-01-02T18:29:17.311Z,3.14
2023-01-02T18:30:49.823Z,2.58
2023-01-02T18:32:21.180Z,4.12
2023-01-02T18:33:52.466Z,3.21
2023-01-02T18:35:54.745Z,2.98
2023-01-02T18:37:26.729Z,3.51
2023-01-02T18:38:58.139Z,3.19
2023-01-02T18:40:34.823Z,2.79
2023-01-02T18:42:06.267Z,4.19
2023-01-02T18:43:37.527Z,4.12
2023-01-02T18:45:08.724Z,3.93
2023-01-02T18:47:03.205Z,3.88
2023-01-02T18:48:36.301Z,3.27
2023-01-02T18:50:07.490Z,3.99
2023-01-02T18:51:38.709Z,3.55
2023-01-02T18:53:10.171Z,5.21
2023-01-02T18:54:41.643Z,4.52
2023-01-02T18:56:13.140Z,4.53
2023-01-02T18:57:44.649Z,3.54
2023-01-02T18:59:16.106Z,4.46
2023-01-02T19:00:47.502Z,4.31
2023-01-02T19:02:19.086Z,6.47
2023-01-02T19:06:28.129Z,5.39
2023-01-02T19:08:58.905Z,3.53
2023-01-02T19:10:36.377Z,4.81
2023-01-02T19:12:09.092Z,4.46
2023-01-02T19:13:40.773Z,4.40
2023-01-02T19:15:12.335Z,3.61
2023-01-02T19:16:44.123Z,5.06
2023-01-02T19:18:16.087Z,5.19
2023-01-02T19:19:53.055Z,4.97
2023-01-02T19:21:29.707Z,4.69
2023-01-02T19:23:01.601Z,4.16
2023-01-02T19:24:33.129Z,5.92
2023-01-02T19:26:04.764Z,7.74
2023-01-02T19:28:15.063Z,6.46
2023-01-02T19:29:46.889Z,5.56
2023-01-02T19:31:18.264Z,6.85
2023-01-02T19:32:54.982Z,4.89
2023-01-02T19:34:26.757Z,6.59
2023-01-02T19:35:58.389Z,4.33
2023-01-02T19:37:29.851Z,6.08
2023-01-02T19:39:07.833Z,5.41
2023-01-02T19:40:40.591Z,7.34
2023-01-02T19:42:45.686Z,5.29
2023-01-02T19:44:50.011Z,7.34
2023-01-02T19:46:21.633Z,7.55
2023-01-02T19:47:58.368Z,6.89
2023-01-02T19:49:30.285Z,6.87
2023-01-02T19:51:01.964Z,7.76
2023-01-02T19:52:33.818Z,5.04
2023-01-02T19:54:05.071Z,7.29
2023-01-02T19:56:07.280Z,7.49
2023-01-02T19:58:06.316Z,5.83
2023-01-02T19:59:43.503Z,6.56
2023-01-02T20:01:15.888Z,8.06
2023-01-02T20:02:48.031Z,7.30
2023-01-02T20:04:19.896Z,9.06
2023-01-02T20:05:51.400Z,7.82
2023-01-02T20:07:41.404Z,6.62
2023-01-02T20:09:13.400Z,7.56
2023-01-02T20:10:45.209Z,8.44
2023-01-02T20:12:21.884Z,8.72
2023-01-02T20:13:53.767Z,8.20
2023-01-02T20:15:25.242Z,10.27
2023-01-02T20:16:57.050Z,8.32
2023-01-02T20:18:38.526Z,8.72
2023-01-02T20:20:15.039Z,7.54
2023-01-02T20:21:47.122Z,5.59
2023-01-02T20:23:18.748Z,7.59
2023-01-02T20:24:50.152Z,7.51
2023-01-02T20:26:21.578Z,6.11
2023-01-02T20:27:52.836Z,9.49
2023-01-02T20:29:24.158Z,9.49
2023-01-02T20:30:55.864Z,8.45
2023-01-02T20:32:32.804Z,10.49
2023-01-02T20:34:04.128Z,8.26
2023-01-02T20:35:40.325Z,5.17
2023-01-02T20:37:13.366Z,7.72
2023-01-02T20:40:37.561Z,9.47
2023-01-02T20:42:13.458Z,9.82
2023-01-02T20:44:09.334Z,8.69